Latest Coastal Weather Observations for Mornington Island Airport

IDQ60701

Issued at 2:12 am EST Friday 26 May 2017 (issued every 10 minutes, with the page automatically refreshed every 10 minutes)

About coastal observations | Map of coastal stations | Coastal observations for QLD | Marine services | Other Formats
Station Details ID: 029182 Name: MORNINGTON ISLAND AIRPORT Lat: -16.66 Lon: 139.17 Height: 9.52 m
Data from the previous 72 hours. | See also: Recent months at Mornington Island Airport
Date/Time
EST
Temp
°C
Wind Pressure Rain since
9am
mm
Weather Cloud Vis
km
Sea
Height
m
Swell
Dir  Spd
kts
Gust
kts
hPa Trend Height
m
Period
s
Dir
26/02:00am 20.2 SSE 5 6 1014.2 - 0.0 - - - - - - -
26/01:30am 20.1 S 4 5 1014.4 - 0.0 - - - - - - -
26/01:00am 20.8 SSE 4 5 1014.5 - 0.0 - - - - - - -
26/12:30am 20.9 SSE 5 6 1014.6 - 0.0 - - - - - - -
26/12:00am 20.6 S 4 6 1014.7 - 0.0 - - - - - - -
 
Date/Time
EST
Temp
°C
Wind Pressure Rain since
9am
mm
Weather Cloud Vis
km
Sea
Height
m
Swell
Dir  Spd
kts
Gust
kts
hPa Trend Height
m
Period
s
Dir
25/11:30pm 20.8 SSE 4 6 1015.1 - 0.0 - - - - - - -
25/11:00pm 20.1 S 5 6 1015.3 - 0.0 - - - - - - -
25/10:30pm 19.3 SSE 5 6 1015.3 - 0.0 - - - - - - -
25/10:00pm 19.6 CALM 0 0 1015.3 - 0.0 - - - - - - -
25/09:30pm 19.8 CALM 0 0 1015.4 - 0.0 - - - - - - -
25/09:00pm 20.3 CALM 0 0 1015.3 - 0.0 - - - - - - -
25/08:30pm 20.5 CALM 0 0 1015.1 - 0.0 - - - - - - -
25/08:00pm 20.7 CALM 0 0 1014.7 - 0.0 - - - - - - -
25/07:30pm 21.7 CALM 0 0 1014.4 - 0.0 - - - - - - -
25/07:00pm 23.1 SE 3 4 1014.3 - 0.0 - - - - - - -
25/06:30pm 24.8 SE 4 5 1014.0 - 0.0 - - - - - - -
25/06:00pm 26.0 SE 6 9 1013.7 - 0.0 - - - - - - -
25/05:30pm 26.9 SE 7 12 1013.6 - 0.0 - - - - - - -
25/05:00pm 27.2 SE 9 15 1013.4 - 0.0 - - - - - - -
25/04:30pm 27.0 SE 11 17 1013.4 - 0.0 - - - - - - -
25/04:00pm 27.5 SE 11 15 1013.3 - 0.0 - - - - - - -
25/03:30pm 27.3 SE 12 18 1013.5 - 0.0 - - - - - - -
25/03:00pm 28.0 SE 11 17 1013.6 - 0.0 - - - - - - -
25/02:30pm 28.5 SE 11 19 1014.1 - 0.0 - - - - - - -
25/02:00pm 29.0 ESE 12 17 1014.4 - 0.0 - - - - - - -
25/01:30pm 28.9 ESE 14 21 1014.8 - 0.0 - - - - - - -
25/01:00pm 28.3 ESE 14 21 1015.4 - 0.0 - - - - - - -
25/12:30pm 29.1 ESE 14 21 1015.8 - 0.0 - - - - - - -
25/12:00pm 29.3 ESE 14 19 1015.9 - 0.0 - - - - - - -
25/11:30am 29.2 E 16 20 1016.1 - 0.0 - - - - - - -
25/11:00am 28.5 ESE 16 22 1016.3 - 0.0 - - - - - - -
25/10:30am 28.5 ESE 16 23 1016.3 - 0.0 - - - - - - -
25/10:00am 28.6 E 19 25 1016.1 - 0.0 - - - - - - -
25/09:30am 28.6 E 17 22 1016.0 - 0.0 - - - - - - -
25/09:00am 27.9 ENE 14 20 1015.7 - 0.0 - - - - - - -
25/08:30am 26.9 E 11 14 1015.3 - 0.0 - - - - - - -
25/08:00am 26.1 ESE 10 14 1015.0 - 0.0 - - - - - - -
25/07:30am 25.5 ESE 9 13 1014.7 - 0.0 - - - - - - -
25/07:00am 25.2 ESE 9 11 1014.3 - 0.0 - - - - - - -
25/06:30am 25.6 SE 11 15 1013.9 - 0.0 - - - - - - -
25/06:00am 25.3 SE 9 13 1013.8 - 0.0 - - - - - - -
25/05:30am 25.4 SE 9 13 1013.7 - 0.0 - - - - - - -
25/05:00am 25.0 SSE 7 11 1013.6 - 0.0 - - - - - - -
25/04:30am 23.7 SSE 5 7 1013.3 - 0.0 - - - - - - -
25/04:00am 23.8 SSE 5 6 1013.3 - 0.0 - - - - - - -
25/03:30am 24.3 SSE 5 7 1013.4 - 0.0 - - - - - - -
25/03:00am 24.6 SSE 6 8 1013.5 - 0.0 - - - - - - -
25/02:30am 24.8 SSE 5 8 1013.8 - 0.0 - - - - - - -
25/02:00am 24.5 SSE 4 7 1014.0 - 0.0 - - - - - - -
25/01:30am 24.1 SSE 4 7 1014.1 - 0.0 - - - - - - -
25/01:00am 24.0 SSE 5 6 1014.3 - 0.0 - - - - - - -
25/12:30am 23.9 SSE 4 5 1014.5 - 0.0 - - - - - - -
25/12:00am 23.5 SSE 5 6 1014.7 - 0.0 - - - - - - -
 
Date/Time
EST
Temp
°C
Wind Pressure Rain since
9am
mm
Weather Cloud Vis
km
Sea
Height
m
Swell
Dir  Spd
kts
Gust
kts
hPa Trend Height
m
Period
s
Dir
24/11:30pm 23.4 SSE 4 5 1014.9 - 0.0 - - - - - - -
24/11:00pm 23.3 S 3 4 1015.0 - 0.0 - - - - - - -
24/10:30pm 23.2 S 3 4 1015.0 - 0.0 - - - - - - -
24/10:00pm 23.1 S 3 4 1015.0 - 0.0 - - - - - - -
24/09:30pm 23.4 S 4 4 1014.9 - 0.0 - - - - - - -
24/09:00pm 23.3 ESE 3 4 1014.8 - 0.0 - - - - - - -
24/08:30pm 23.5 ESE 3 4 1014.6 - 0.0 - - - - - - -
24/08:00pm 23.8 SE 3 5 1014.2 - 0.0 - - - - - - -
24/07:30pm 24.2 SE 3 4 1014.1 - 0.0 - - - - - - -
24/07:00pm 25.0 SSE 3 4 1013.9 - 0.0 - - - - - - -
24/06:30pm 26.0 SSE 4 5 1013.7 - 0.0 - - - - - - -
24/06:00pm 27.0 SSE 5 6 1013.5 - 0.0 - - - - - - -
24/05:30pm 27.9 SE 6 9 1013.4 - 0.0 - - - - - - -
24/05:00pm 28.1 SE 9 11 1013.4 - 0.0 - - - - - - -
24/04:30pm 27.9 SE 9 13 1013.4 - 0.0 - - - - - - -
24/04:00pm 28.2 SE 9 14 1013.4 - 0.0 - - - - - - -
24/03:30pm 28.0 SSE 9 14 1013.5 - 0.0 - - - - - - -
24/03:00pm 28.6 SSE 10 16 1013.4 - 0.0 - - - - - - -
24/02:30pm 28.8 SE 10 14 1013.5 - 0.0 - - - - - - -
24/02:00pm 29.1 SE 9 13 1013.8 - 0.0 - - - - - - -
24/01:30pm 29.1 ESE 11 18 1014.4 - 0.0 - - - - - - -
24/01:00pm 30.3 ESE 10 14 1014.7 - 0.0 - - - - - - -
24/12:30pm 30.2 E 11 15 1015.1 - 0.0 - - - - - - -
24/12:00pm 30.9 E 11 15 1015.3 - 0.0 - - - - - - -
24/11:30am 29.6 ENE 11 16 1015.6 - 0.0 - - - - - - -
24/11:00am 29.3 NE 8 11 1015.8 - 0.0 - - - - - - -
24/10:30am 29.3 ENE 11 18 1015.9 - 0.0 - - - - - - -
24/10:00am 29.0 ENE 12 17 1015.8 - 0.0 - - - - - - -
24/09:30am 28.3 E 11 16 1015.7 - 0.0 - - - - - - -
24/09:00am 27.3 ESE 11 18 1015.4 - 0.0 - - - - - - -
24/08:30am 26.6 ESE 10 13 1014.9 - 0.0 - - - - - - -
24/08:00am 25.6 ESE 9 13 1014.5 - 0.0 - - - - - - -
24/07:30am 24.5 ESE 8 10 1014.2 - 0.0 - - - - - - -
24/07:00am 24.3 SE 6 8 1013.9 - 0.0 - - - - - - -
24/06:30am 24.2 SE 6 9 1013.5 - 0.0 - - - - - - -
24/06:00am 22.5 SSE 4 5 1013.3 - 0.0 - - - - - - -
24/05:30am 22.9 SSE 5 6 1013.1 - 0.0 - - - - - - -
24/05:00am 22.6 SSE 4 6 1013.0 - 0.0 - - - - - - -
24/04:30am 23.1 SSE 3 4 1012.9 - 0.0 - - - - - - -
24/04:00am 23.1 SSE 3 4 1012.7 - 0.0 - - - - - - -
24/03:30am 22.7 S 4 6 1012.8 - 0.0 - - - - - - -
24/03:00am 22.8 S 3 4 1012.9 - 0.0 - - - - - - -
24/02:30am 23.3 S 3 4 1013.1 - 0.0 - - - - - - -
24/02:00am 23.4 SSW 3 4 1013.3 - 0.0 - - - - - - -
24/01:30am 23.1 SSW 3 4 1013.5 - 0.0 - - - - - - -
24/01:00am 23.2 SSW 4 5 1013.7 - 0.0 - - - - - - -
24/12:30am 21.9 S 4 4 1014.0 - 0.0 - - - - - - -
24/12:00am 21.9 E 3 4 1014.2 - 0.0 - - - - - - -
 
Date/Time
EST
Temp
°C
Wind Pressure Rain since
9am
mm
Weather Cloud Vis
km
Sea
Height
m
Swell
Dir  Spd
kts
Gust
kts
hPa Trend Height
m
Period
s
Dir
23/11:30pm 22.0 NE 3 4 1014.3 - 0.0 - - - - - - -
23/11:00pm 22.2 NE 3 4 1014.4 - 0.0 - - - - - - -
23/10:30pm 22.4 NE 3 4 1014.4 - 0.0 - - - - - - -
23/10:00pm 22.9 NE 3 4 1014.5 - 0.0 - - - - - - -
23/09:30pm 23.1 NE 3 3 1014.4 - 0.0 - - - - - - -
23/09:00pm 23.2 NE 5 6 1014.4 - 0.0 - - - - - - -
23/08:30pm 23.4 ENE 4 5 1014.1 - 0.0 - - - - - - -
23/08:00pm 23.7 ENE 5 5 1013.9 - 0.0 - - - - - - -
23/07:30pm 24.2 ENE 5 5 1013.5 - 0.0 - - - - - - -
23/07:00pm 24.8 ENE 6 6 1013.3 - 0.0 - - - - - - -
23/06:30pm 25.9 E 6 7 1013.1 - 0.0 - - - - - - -
23/06:00pm 26.7 ESE 7 8 1012.9 - 0.0 - - - - - - -
23/05:30pm 27.0 SE 6 10 1012.8 - 0.0 - - - - - - -
23/05:00pm 27.4 SSE 7 11 1012.5 - 0.0 - - - - - - -
23/04:30pm 27.2 SSE 9 13 1012.5 - 0.0 - - - - - - -
23/04:00pm 27.4 SSE 9 15 1012.5 - 0.0 - - - - - - -
23/03:30pm 27.9 SSE 11 16 1012.5 - 0.0 - - - - - - -
23/03:00pm 29.1 SSE 8 12 1012.4 - 0.0 - - - - - - -
23/02:30pm 30.2 SSE 8 12 1012.6 - 0.0 - - - - - - -
23/02:00pm 30.6 SE 8 13 1012.8 - 0.0 - - - - - - -
23/01:30pm 30.6 ESE 10 13 1013.3 - 0.0 - - - - - - -
23/01:00pm 30.4 ESE 11 15 1013.8 - 0.0 - - - - - - -
23/12:30pm 30.4 ESE 10 14 1014.2 - 0.0 - - - - - - -
23/12:00pm 29.8 ESE 11 16 1014.6 - 0.0 - - - - - - -
23/11:30am 29.9 ESE 10 14 1015.0 - 0.0 - - - - - - -
23/11:00am 29.4 SE 10 15 1015.2 - 0.0 - - - - - - -
23/10:30am 29.1 ESE 10 14 1015.3 - 0.0 - - - - - - -
23/10:00am 28.1 SE 11 15 1015.4 - 0.0 - - - - - - -
23/09:30am 27.4 SE 11 16 1015.4 - 0.0 - - - - - - -
23/09:00am 27.0 SE 9 14 1015.3 - 0.0 - - - - - - -
23/08:30am 26.1 SSE 7 10 1014.9 - 0.0 - - - - - - -
23/08:00am 24.9 SSE 7 10 1014.5 - 0.0 - - - - - - -
23/07:30am 23.7 SSE 6 8 1014.3 - 0.0 - - - - - - -
23/07:00am 23.0 SSE 6 8 1014.2 - 0.0 - - - - - - -
23/06:30am 22.8 S 5 7 1014.0 - 0.0 - - - - - - -
23/06:00am 22.6 S 3 6 1013.7 - 0.0 - - - - - - -
23/05:30am 22.8 SSW 3 5 1013.3 - 0.0 - - - - - - -
23/05:00am 23.0 SSW 3 5 1013.2 - 0.0 - - - - - - -
23/04:30am 22.8 SSW 3 4 1013.0 - 0.0 - - - - - - -
23/04:00am 22.9 S 3 4 1013.0 - 0.0 - - - - - - -
23/03:30am 23.2 SSW 1 4 1013.1 - 0.0 - - - - - - -
23/03:00am 22.8 SSW 1 3 1013.2 - 0.0 - - - - - - -
23/02:30am 23.0 S 3 4 1013.6 - 0.0 - - - - - - -

Other Formats:

Comma delimited format used in spreadsheet applications
http://www.bom.gov.au/fwo/IDQ60701/IDQ60701.94254.axf

JavaScript Object Notation format (JSON) in row-major order
http://www.bom.gov.au/fwo/IDQ60701/IDQ60701.94254.json